sensor_id;sensor_type;location;lat;lon;timestamp;P1;durP1;ratioP1;P2;durP2;ratioP2
27632;SDS011;15046;50.930;13.334;2022-07-24T00:01:49;13.07;;;11.65;;
27632;SDS011;15046;50.930;13.334;2022-07-24T00:04:14;13.55;;;11.50;;
27632;SDS011;15046;50.930;13.334;2022-07-24T00:06:40;14.07;;;12.05;;
27632;SDS011;15046;50.930;13.334;2022-07-24T00:09:07;14.98;;;12.10;;
27632;SDS011;15046;50.930;13.334;2022-07-24T00:11:33;15.07;;;11.13;;
27632;SDS011;15046;50.930;13.334;2022-07-24T00:13:59;15.57;;;11.90;;
27632;SDS011;15046;50.930;13.334;2022-07-24T00:16:24;15.00;;;12.20;;
27632;SDS011;15046;50.930;13.334;2022-07-24T00:18:50;13.77;;;11.25;;
27632;SDS011;15046;50.930;13.334;2022-07-24T00:21:16;13.23;;;9.98;;
27632;SDS011;15046;50.930;13.334;2022-07-24T00:23:42;13.85;;;10.50;;
27632;SDS011;15046;50.930;13.334;2022-07-24T00:26:08;11.95;;;10.10;;
27632;SDS011;15046;50.930;13.334;2022-07-24T00:28:35;13.95;;;9.63;;
27632;SDS011;15046;50.930;13.334;2022-07-24T00:31:01;14.63;;;11.00;;
27632;SDS011;15046;50.930;13.334;2022-07-24T00:33:27;12.65;;;10.05;;
27632;SDS011;15046;50.930;13.334;2022-07-24T00:35:53;14.35;;;10.27;;
27632;SDS011;15046;50.930;13.334;2022-07-24T00:38:19;14.10;;;9.68;;
27632;SDS011;15046;50.930;13.334;2022-07-24T00:40:45;18.00;;;9.82;;
27632;SDS011;15046;50.930;13.334;2022-07-24T00:43:10;15.93;;;9.98;;
27632;SDS011;15046;50.930;13.334;2022-07-24T00:45:38;11.00;;;9.57;;
27632;SDS011;15046;50.930;13.334;2022-07-24T00:48:04;14.20;;;9.68;;
27632;SDS011;15046;50.930;13.334;2022-07-24T00:50:30;12.52;;;9.77;;
27632;SDS011;15046;50.930;13.334;2022-07-24T00:52:56;12.88;;;10.57;;
27632;SDS011;15046;50.930;13.334;2022-07-24T00:55:22;12.35;;;9.48;;
27632;SDS011;15046;50.930;13.334;2022-07-24T00:57:49;10.80;;;9.60;;
27632;SDS011;15046;50.930;13.334;2022-07-24T01:00:16;12.23;;;8.93;;
27632;SDS011;15046;50.930;13.334;2022-07-24T01:02:44;12.27;;;9.60;;
27632;SDS011;15046;50.930;13.334;2022-07-24T01:05:11;11.38;;;8.88;;
27632;SDS011;15046;50.930;13.334;2022-07-24T01:07:37;11.63;;;8.60;;
27632;SDS011;15046;50.930;13.334;2022-07-24T01:10:03;11.38;;;8.32;;
27632;SDS011;15046;50.930;13.334;2022-07-24T01:12:30;12.25;;;7.97;;
27632;SDS011;15046;50.930;13.334;2022-07-24T01:14:58;11.73;;;8.82;;
27632;SDS011;15046;50.930;13.334;2022-07-24T01:17:28;11.43;;;8.52;;
27632;SDS011;15046;50.930;13.334;2022-07-24T01:19:55;12.70;;;8.20;;
27632;SDS011;15046;50.930;13.334;2022-07-24T01:22:21;10.73;;;8.25;;
27632;SDS011;15046;50.930;13.334;2022-07-24T01:24:47;9.75;;;7.93;;
27632;SDS011;15046;50.930;13.334;2022-07-24T01:27:13;11.23;;;8.10;;
27632;SDS011;15046;50.930;13.334;2022-07-24T01:29:40;10.68;;;8.05;;
27632;SDS011;15046;50.930;13.334;2022-07-24T01:32:06;10.57;;;8.18;;
27632;SDS011;15046;50.930;13.334;2022-07-24T01:34:32;10.82;;;8.38;;
27632;SDS011;15046;50.930;13.334;2022-07-24T01:36:58;10.80;;;8.48;;
27632;SDS011;15046;50.930;13.334;2022-07-24T01:39:23;10.25;;;8.30;;
27632;SDS011;15046;50.930;13.334;2022-07-24T01:41:49;10.95;;;8.50;;
27632;SDS011;15046;50.930;13.334;2022-07-24T01:44:15;9.45;;;7.90;;
27632;SDS011;15046;50.930;13.334;2022-07-24T01:46:41;11.45;;;8.63;;
27632;SDS011;15046;50.930;13.334;2022-07-24T01:49:07;10.63;;;8.75;;
27632;SDS011;15046;50.930;13.334;2022-07-24T01:51:33;12.35;;;8.65;;
27632;SDS011;15046;50.930;13.334;2022-07-24T01:53:59;11.25;;;8.05;;
27632;SDS011;15046;50.930;13.334;2022-07-24T01:56:24;10.65;;;7.75;;
27632;SDS011;15046;50.930;13.334;2022-07-24T01:58:50;14.10;;;8.85;;
27632;SDS011;15046;50.930;13.334;2022-07-24T02:01:16;11.25;;;7.30;;
27632;SDS011;15046;50.930;13.334;2022-07-24T02:03:42;10.20;;;7.85;;
27632;SDS011;15046;50.930;13.334;2022-07-24T02:06:07;11.98;;;8.20;;
27632;SDS011;15046;50.930;13.334;2022-07-24T02:08:33;9.40;;;7.93;;
27632;SDS011;15046;50.930;13.334;2022-07-24T02:11:00;11.45;;;8.15;;
27632;SDS011;15046;50.930;13.334;2022-07-24T02:13:26;12.93;;;8.43;;
27632;SDS011;15046;50.930;13.334;2022-07-24T02:15:51;11.80;;;8.20;;
27632;SDS011;15046;50.930;13.334;2022-07-24T02:18:17;12.30;;;8.60;;
27632;SDS011;15046;50.930;13.334;2022-07-24T02:20:43;11.45;;;8.13;;
27632;SDS011;15046;50.930;13.334;2022-07-24T02:23:09;12.30;;;7.70;;
27632;SDS011;15046;50.930;13.334;2022-07-24T02:25:35;8.85;;;7.47;;
27632;SDS011;15046;50.930;13.334;2022-07-24T02:28:01;10.38;;;8.57;;
27632;SDS011;15046;50.930;13.334;2022-07-24T02:30:27;12.98;;;8.63;;
27632;SDS011;15046;50.930;13.334;2022-07-24T02:32:52;11.35;;;8.82;;
27632;SDS011;15046;50.930;13.334;2022-07-24T02:35:18;11.88;;;8.32;;
27632;SDS011;15046;50.930;13.334;2022-07-24T02:37:44;14.05;;;9.02;;
27632;SDS011;15046;50.930;13.334;2022-07-24T02:40:12;11.05;;;8.85;;
27632;SDS011;15046;50.930;13.334;2022-07-24T02:42:38;10.57;;;9.05;;
27632;SDS011;15046;50.930;13.334;2022-07-24T02:45:05;11.10;;;8.57;;
27632;SDS011;15046;50.930;13.334;2022-07-24T02:47:32;10.00;;;8.70;;
27632;SDS011;15046;50.930;13.334;2022-07-24T02:49:58;10.98;;;9.13;;
27632;SDS011;15046;50.930;13.334;2022-07-24T02:52:24;15.05;;;10.10;;
27632;SDS011;15046;50.930;13.334;2022-07-24T02:54:49;11.38;;;8.57;;
27632;SDS011;15046;50.930;13.334;2022-07-24T02:57:15;10.93;;;8.85;;
27632;SDS011;15046;50.930;13.334;2022-07-24T02:59:41;10.98;;;8.90;;
27632;SDS011;15046;50.930;13.334;2022-07-24T03:02:07;10.13;;;8.80;;
27632;SDS011;15046;50.930;13.334;2022-07-24T03:04:32;13.32;;;9.15;;
27632;SDS011;15046;50.930;13.334;2022-07-24T03:06:58;16.25;;;9.63;;
27632;SDS011;15046;50.930;13.334;2022-07-24T03:09:24;14.88;;;9.52;;
27632;SDS011;15046;50.930;13.334;2022-07-24T03:11:50;15.40;;;9.40;;
27632;SDS011;15046;50.930;13.334;2022-07-24T03:14:15;16.80;;;10.98;;
27632;SDS011;15046;50.930;13.334;2022-07-24T03:16:41;14.80;;;11.32;;
27632;SDS011;15046;50.930;13.334;2022-07-24T03:19:07;13.02;;;9.70;;
27632;SDS011;15046;50.930;13.334;2022-07-24T03:21:33;19.50;;;12.45;;
27632;SDS011;15046;50.930;13.334;2022-07-24T03:23:58;15.35;;;11.98;;
27632;SDS011;15046;50.930;13.334;2022-07-24T03:26:24;18.80;;;13.27;;
27632;SDS011;15046;50.930;13.334;2022-07-24T03:28:50;17.50;;;12.80;;
27632;SDS011;15046;50.930;13.334;2022-07-24T03:31:16;16.05;;;13.27;;
27632;SDS011;15046;50.930;13.334;2022-07-24T03:33:41;19.48;;;14.48;;
27632;SDS011;15046;50.930;13.334;2022-07-24T03:36:07;18.55;;;12.93;;
27632;SDS011;15046;50.930;13.334;2022-07-24T03:38:34;16.42;;;12.60;;
27632;SDS011;15046;50.930;13.334;2022-07-24T03:41:00;18.20;;;12.73;;
27632;SDS011;15046;50.930;13.334;2022-07-24T03:43:26;22.25;;;14.38;;
27632;SDS011;15046;50.930;13.334;2022-07-24T03:45:52;19.50;;;14.98;;
27632;SDS011;15046;50.930;13.334;2022-07-24T03:48:18;22.00;;;15.40;;
27632;SDS011;15046;50.930;13.334;2022-07-24T03:50:43;20.23;;;14.70;;
27632;SDS011;15046;50.930;13.334;2022-07-24T03:53:09;20.00;;;13.88;;
27632;SDS011;15046;50.930;13.334;2022-07-24T03:55:37;20.38;;;13.40;;
27632;SDS011;15046;50.930;13.334;2022-07-24T03:58:02;19.88;;;14.40;;
27632;SDS011;15046;50.930;13.334;2022-07-24T04:00:28;18.55;;;13.88;;
27632;SDS011;15046;50.930;13.334;2022-07-24T04:02:54;20.90;;;13.65;;
27632;SDS011;15046;50.930;13.334;2022-07-24T04:05:20;22.23;;;14.63;;
27632;SDS011;15046;50.930;13.334;2022-07-24T04:07:46;19.25;;;14.23;;
27632;SDS011;15046;50.930;13.334;2022-07-24T04:10:11;19.30;;;14.10;;
27632;SDS011;15046;50.930;13.334;2022-07-24T04:12:37;22.05;;;15.02;;
27632;SDS011;15046;50.930;13.334;2022-07-24T04:15:03;19.13;;;14.88;;
27632;SDS011;15046;50.930;13.334;2022-07-24T04:17:29;18.35;;;14.05;;
27632;SDS011;15046;50.930;13.334;2022-07-24T04:19:55;19.15;;;14.02;;
27632;SDS011;15046;50.930;13.334;2022-07-24T04:22:21;18.73;;;12.82;;
27632;SDS011;15046;50.930;13.334;2022-07-24T04:24:46;19.67;;;14.00;;
27632;SDS011;15046;50.930;13.334;2022-07-24T04:27:12;16.13;;;12.25;;
27632;SDS011;15046;50.930;13.334;2022-07-24T04:29:38;16.23;;;11.93;;
27632;SDS011;15046;50.930;13.334;2022-07-24T04:32:04;16.17;;;12.80;;
27632;SDS011;15046;50.930;13.334;2022-07-24T04:34:30;18.63;;;12.60;;
27632;SDS011;15046;50.930;13.334;2022-07-24T04:36:56;17.15;;;12.68;;
27632;SDS011;15046;50.930;13.334;2022-07-24T04:39:25;17.25;;;13.45;;
27632;SDS011;15046;50.930;13.334;2022-07-24T04:41:51;17.90;;;12.60;;
27632;SDS011;15046;50.930;13.334;2022-07-24T04:44:17;19.10;;;14.20;;
27632;SDS011;15046;50.930;13.334;2022-07-24T04:46:42;23.10;;;14.25;;
27632;SDS011;15046;50.930;13.334;2022-07-24T04:49:08;19.00;;;13.38;;
27632;SDS011;15046;50.930;13.334;2022-07-24T04:51:34;25.27;;;14.52;;
27632;SDS011;15046;50.930;13.334;2022-07-24T04:54:00;22.52;;;14.15;;
27632;SDS011;15046;50.930;13.334;2022-07-24T04:56:25;19.52;;;13.90;;
27632;SDS011;15046;50.930;13.334;2022-07-24T04:58:55;18.85;;;14.75;;
27632;SDS011;15046;50.930;13.334;2022-07-24T05:01:21;19.40;;;12.43;;
27632;SDS011;15046;50.930;13.334;2022-07-24T05:03:47;17.45;;;13.10;;
27632;SDS011;15046;50.930;13.334;2022-07-24T05:06:12;16.73;;;12.70;;
27632;SDS011;15046;50.930;13.334;2022-07-24T05:08:38;17.33;;;12.98;;
27632;SDS011;15046;50.930;13.334;2022-07-24T05:11:04;16.40;;;12.60;;
27632;SDS011;15046;50.930;13.334;2022-07-24T05:13:30;17.77;;;12.43;;
27632;SDS011;15046;50.930;13.334;2022-07-24T05:15:56;17.35;;;13.25;;
27632;SDS011;15046;50.930;13.334;2022-07-24T05:18:21;17.60;;;12.88;;
27632;SDS011;15046;50.930;13.334;2022-07-24T05:20:47;17.25;;;12.82;;
27632;SDS011;15046;50.930;13.334;2022-07-24T05:23:13;17.27;;;13.43;;
27632;SDS011;15046;50.930;13.334;2022-07-24T05:25:39;19.67;;;12.27;;
27632;SDS011;15046;50.930;13.334;2022-07-24T05:28:04;17.63;;;12.48;;
27632;SDS011;15046;50.930;13.334;2022-07-24T05:30:30;18.92;;;13.18;;
27632;SDS011;15046;50.930;13.334;2022-07-24T05:32:56;17.85;;;13.07;;
27632;SDS011;15046;50.930;13.334;2022-07-24T05:35:22;12.23;;;10.55;;
27632;SDS011;15046;50.930;13.334;2022-07-24T05:37:48;17.73;;;11.40;;
27632;SDS011;15046;50.930;13.334;2022-07-24T05:40:14;10.10;;;7.53;;
27632;SDS011;15046;50.930;13.334;2022-07-24T05:42:39;10.48;;;8.13;;
27632;SDS011;15046;50.930;13.334;2022-07-24T05:45:05;13.77;;;7.43;;
27632;SDS011;15046;50.930;13.334;2022-07-24T05:47:35;10.45;;;6.95;;
27632;SDS011;15046;50.930;13.334;2022-07-24T05:50:08;8.38;;;5.80;;
27632;SDS011;15046;50.930;13.334;2022-07-24T05:52:35;7.60;;;5.35;;
27632;SDS011;15046;50.930;13.334;2022-07-24T05:55:02;8.65;;;5.38;;
27632;SDS011;15046;50.930;13.334;2022-07-24T05:57:29;8.55;;;5.78;;
27632;SDS011;15046;50.930;13.334;2022-07-24T05:59:55;6.93;;;5.30;;
27632;SDS011;15046;50.930;13.334;2022-07-24T06:02:21;8.68;;;5.13;;
27632;SDS011;15046;50.930;13.334;2022-07-24T06:04:46;7.47;;;5.18;;
27632;SDS011;15046;50.930;13.334;2022-07-24T06:07:12;6.90;;;4.68;;
27632;SDS011;15046;50.930;13.334;2022-07-24T06:09:38;8.40;;;5.10;;
27632;SDS011;15046;50.930;13.334;2022-07-24T06:12:05;7.22;;;4.63;;
27632;SDS011;15046;50.930;13.334;2022-07-24T06:14:31;7.25;;;4.22;;
27632;SDS011;15046;50.930;13.334;2022-07-24T06:16:58;7.53;;;4.00;;
27632;SDS011;15046;50.930;13.334;2022-07-24T06:19:24;8.15;;;3.97;;
27632;SDS011;15046;50.930;13.334;2022-07-24T06:21:51;6.18;;;3.22;;
27632;SDS011;15046;50.930;13.334;2022-07-24T06:24:17;7.53;;;3.45;;
27632;SDS011;15046;50.930;13.334;2022-07-24T06:26:43;3.85;;;2.42;;
27632;SDS011;15046;50.930;13.334;2022-07-24T06:29:09;13.45;;;2.10;;
27632;SDS011;15046;50.930;13.334;2022-07-24T06:31:35;4.03;;;1.60;;
27632;SDS011;15046;50.930;13.334;2022-07-24T06:34:01;5.38;;;1.80;;
27632;SDS011;15046;50.930;13.334;2022-07-24T06:36:27;3.20;;;1.67;;
27632;SDS011;15046;50.930;13.334;2022-07-24T06:38:53;5.88;;;1.77;;
27632;SDS011;15046;50.930;13.334;2022-07-24T06:41:19;4.82;;;1.50;;
27632;SDS011;15046;50.930;13.334;2022-07-24T06:43:47;4.20;;;2.00;;
27632;SDS011;15046;50.930;13.334;2022-07-24T06:46:15;6.32;;;2.67;;
27632;SDS011;15046;50.930;13.334;2022-07-24T06:48:41;5.32;;;1.70;;
27632;SDS011;15046;50.930;13.334;2022-07-24T06:51:07;3.50;;;1.80;;
27632;SDS011;15046;50.930;13.334;2022-07-24T06:53:33;8.30;;;2.75;;
27632;SDS011;15046;50.930;13.334;2022-07-24T06:55:58;5.95;;;2.33;;
27632;SDS011;15046;50.930;13.334;2022-07-24T06:58:26;4.50;;;2.10;;
27632;SDS011;15046;50.930;13.334;2022-07-24T07:00:52;9.45;;;2.50;;
27632;SDS011;15046;50.930;13.334;2022-07-24T07:03:17;4.25;;;2.00;;
27632;SDS011;15046;50.930;13.334;2022-07-24T07:05:43;4.32;;;2.30;;
27632;SDS011;15046;50.930;13.334;2022-07-24T07:08:09;4.82;;;2.15;;
27632;SDS011;15046;50.930;13.334;2022-07-24T07:10:35;4.38;;;2.42;;
27632;SDS011;15046;50.930;13.334;2022-07-24T07:13:01;4.35;;;2.40;;
27632;SDS011;15046;50.930;13.334;2022-07-24T07:15:27;4.95;;;2.20;;
27632;SDS011;15046;50.930;13.334;2022-07-24T07:17:52;5.22;;;2.65;;
27632;SDS011;15046;50.930;13.334;2022-07-24T07:20:18;4.28;;;2.50;;
27632;SDS011;15046;50.930;13.334;2022-07-24T07:22:44;6.40;;;2.95;;
27632;SDS011;15046;50.930;13.334;2022-07-24T07:25:10;7.57;;;3.13;;
27632;SDS011;15046;50.930;13.334;2022-07-24T07:27:37;4.75;;;2.90;;
27632;SDS011;15046;50.930;13.334;2022-07-24T07:30:05;7.22;;;2.95;;
27632;SDS011;15046;50.930;13.334;2022-07-24T07:32:31;4.50;;;2.80;;
27632;SDS011;15046;50.930;13.334;2022-07-24T07:34:57;4.05;;;2.60;;
27632;SDS011;15046;50.930;13.334;2022-07-24T07:37:23;6.38;;;2.92;;
27632;SDS011;15046;50.930;13.334;2022-07-24T07:39:49;4.65;;;2.88;;
27632;SDS011;15046;50.930;13.334;2022-07-24T07:42:15;5.68;;;2.63;;
27632;SDS011;15046;50.930;13.334;2022-07-24T07:44:41;7.70;;;2.90;;
27632;SDS011;15046;50.930;13.334;2022-07-24T07:47:06;4.40;;;2.55;;
27632;SDS011;15046;50.930;13.334;2022-07-24T07:49:32;7.50;;;3.20;;
27632;SDS011;15046;50.930;13.334;2022-07-24T07:51:58;6.28;;;3.05;;
27632;SDS011;15046;50.930;13.334;2022-07-24T07:54:24;6.13;;;2.72;;
27632;SDS011;15046;50.930;13.334;2022-07-24T07:56:50;5.28;;;3.20;;
27632;SDS011;15046;50.930;13.334;2022-07-24T07:59:16;5.45;;;2.85;;
27632;SDS011;15046;50.930;13.334;2022-07-24T08:01:42;4.28;;;2.35;;
27632;SDS011;15046;50.930;13.334;2022-07-24T08:04:07;6.68;;;2.90;;
27632;SDS011;15046;50.930;13.334;2022-07-24T08:06:33;6.97;;;3.30;;
27632;SDS011;15046;50.930;13.334;2022-07-24T08:08:59;5.63;;;3.00;;
27632;SDS011;15046;50.930;13.334;2022-07-24T08:11:25;9.00;;;3.35;;
27632;SDS011;15046;50.930;13.334;2022-07-24T08:13:50;6.88;;;3.00;;
27632;SDS011;15046;50.930;13.334;2022-07-24T08:16:16;7.38;;;3.50;;
27632;SDS011;15046;50.930;13.334;2022-07-24T08:18:42;7.80;;;3.60;;
27632;SDS011;15046;50.930;13.334;2022-07-24T08:21:08;7.00;;;3.20;;
27632;SDS011;15046;50.930;13.334;2022-07-24T08:23:34;5.70;;;2.90;;
27632;SDS011;15046;50.930;13.334;2022-07-24T08:26:00;5.47;;;3.17;;
27632;SDS011;15046;50.930;13.334;2022-07-24T08:28:25;6.75;;;3.10;;
27632;SDS011;15046;50.930;13.334;2022-07-24T08:30:51;5.20;;;3.40;;
27632;SDS011;15046;50.930;13.334;2022-07-24T08:33:17;4.93;;;3.30;;
27632;SDS011;15046;50.930;13.334;2022-07-24T08:35:43;6.00;;;3.40;;
27632;SDS011;15046;50.930;13.334;2022-07-24T08:38:09;4.82;;;3.30;;
27632;SDS011;15046;50.930;13.334;2022-07-24T08:40:36;6.45;;;3.20;;
27632;SDS011;15046;50.930;13.334;2022-07-24T08:43:04;5.55;;;3.30;;
27632;SDS011;15046;50.930;13.334;2022-07-24T08:45:33;7.97;;;3.70;;
27632;SDS011;15046;50.930;13.334;2022-07-24T08:48:05;5.15;;;2.92;;
27632;SDS011;15046;50.930;13.334;2022-07-24T08:50:35;6.55;;;3.50;;
27632;SDS011;15046;50.930;13.334;2022-07-24T08:53:03;4.43;;;3.35;;
27632;SDS011;15046;50.930;13.334;2022-07-24T08:55:32;5.93;;;3.38;;
27632;SDS011;15046;50.930;13.334;2022-07-24T08:57:59;6.85;;;3.20;;
27632;SDS011;15046;50.930;13.334;2022-07-24T09:00:26;4.68;;;3.20;;
27632;SDS011;15046;50.930;13.334;2022-07-24T09:02:53;4.28;;;2.70;;
27632;SDS011;15046;50.930;13.334;2022-07-24T09:05:19;5.05;;;3.00;;
27632;SDS011;15046;50.930;13.334;2022-07-24T09:07:46;5.18;;;2.83;;
27632;SDS011;15046;50.930;13.334;2022-07-24T09:10:15;5.82;;;3.10;;
27632;SDS011;15046;50.930;13.334;2022-07-24T09:12:43;4.88;;;2.90;;
27632;SDS011;15046;50.930;13.334;2022-07-24T09:15:18;5.20;;;3.10;;
27632;SDS011;15046;50.930;13.334;2022-07-24T09:17:50;6.72;;;3.17;;
27632;SDS011;15046;50.930;13.334;2022-07-24T09:20:17;5.15;;;3.25;;
27632;SDS011;15046;50.930;13.334;2022-07-24T09:22:43;6.85;;;3.28;;
27632;SDS011;15046;50.930;13.334;2022-07-24T09:27:48;6.50;;;3.78;;
27632;SDS011;15046;50.930;13.334;2022-07-24T09:30:31;5.28;;;3.20;;
27632;SDS011;15046;50.930;13.334;2022-07-24T09:33:03;7.38;;;3.13;;
27632;SDS011;15046;50.930;13.334;2022-07-24T09:35:36;4.93;;;3.30;;
27632;SDS011;15046;50.930;13.334;2022-07-24T09:38:05;5.05;;;3.17;;
27632;SDS011;15046;50.930;13.334;2022-07-24T09:40:43;6.40;;;3.17;;
27632;SDS011;15046;50.930;13.334;2022-07-24T09:43:12;4.45;;;3.20;;
27632;SDS011;15046;50.930;13.334;2022-07-24T09:45:56;7.63;;;3.30;;
27632;SDS011;15046;50.930;13.334;2022-07-24T09:48:35;7.05;;;3.38;;
27632;SDS011;15046;50.930;13.334;2022-07-24T09:51:05;5.80;;;3.47;;
27632;SDS011;15046;50.930;13.334;2022-07-24T09:53:35;5.10;;;2.70;;
27632;SDS011;15046;50.930;13.334;2022-07-24T09:58:30;7.70;;;3.67;;
27632;SDS011;15046;50.930;13.334;2022-07-24T10:00:59;5.25;;;2.92;;
27632;SDS011;15046;50.930;13.334;2022-07-24T10:03:32;6.13;;;3.38;;
27632;SDS011;15046;50.930;13.334;2022-07-24T10:06:00;5.95;;;2.80;;
27632;SDS011;15046;50.930;13.334;2022-07-24T10:08:29;4.60;;;2.85;;
27632;SDS011;15046;50.930;13.334;2022-07-24T10:10:56;6.13;;;3.30;;
27632;SDS011;15046;50.930;13.334;2022-07-24T10:13:24;7.85;;;3.35;;
27632;SDS011;15046;50.930;13.334;2022-07-24T10:18:48;5.70;;;2.90;;
27632;SDS011;15046;50.930;13.334;2022-07-24T10:21:17;4.85;;;3.10;;
27632;SDS011;15046;50.930;13.334;2022-07-24T10:29:13;6.00;;;3.10;;
27632;SDS011;15046;50.930;13.334;2022-07-24T10:31:41;6.75;;;3.40;;
27632;SDS011;15046;50.930;13.334;2022-07-24T10:42:43;6.93;;;3.58;;
27632;SDS011;15046;50.930;13.334;2022-07-24T10:51:00;5.55;;;3.38;;
27632;SDS011;15046;50.930;13.334;2022-07-24T10:53:30;5.97;;;3.28;;
27632;SDS011;15046;50.930;13.334;2022-07-24T10:56:21;7.70;;;3.37;;
27632;SDS011;15046;50.930;13.334;2022-07-24T10:58:54;5.55;;;3.45;;
27632;SDS011;15046;50.930;13.334;2022-07-24T11:01:45;4.18;;;2.85;;
27632;SDS011;15046;50.930;13.334;2022-07-24T11:09:15;4.95;;;2.90;;
27632;SDS011;15046;50.930;13.334;2022-07-24T11:12:02;4.72;;;2.70;;
27632;SDS011;15046;50.930;13.334;2022-07-24T11:17:48;8.27;;;3.00;;
27632;SDS011;15046;50.930;13.334;2022-07-24T11:20:02;4.10;;;2.47;;
27632;SDS011;15046;50.930;13.334;2022-07-24T11:22:37;4.05;;;2.90;;
27632;SDS011;15046;50.930;13.334;2022-07-24T11:25:06;3.67;;;2.45;;
27632;SDS011;15046;50.930;13.334;2022-07-24T11:27:43;5.38;;;2.50;;
27632;SDS011;15046;50.930;13.334;2022-07-24T11:30:13;5.90;;;2.83;;
27632;SDS011;15046;50.930;13.334;2022-07-24T11:32:40;3.78;;;2.78;;
27632;SDS011;15046;50.930;13.334;2022-07-24T11:35:06;4.18;;;3.00;;
27632;SDS011;15046;50.930;13.334;2022-07-24T11:37:36;5.00;;;2.65;;
27632;SDS011;15046;50.930;13.334;2022-07-24T11:40:04;4.07;;;2.60;;
27632;SDS011;15046;50.930;13.334;2022-07-24T11:42:31;4.50;;;3.33;;
27632;SDS011;15046;50.930;13.334;2022-07-24T11:44:58;4.93;;;2.80;;
27632;SDS011;15046;50.930;13.334;2022-07-24T11:47:25;4.82;;;2.72;;
27632;SDS011;15046;50.930;13.334;2022-07-24T11:49:53;3.72;;;2.63;;
27632;SDS011;15046;50.930;13.334;2022-07-24T11:52:44;5.10;;;2.90;;
27632;SDS011;15046;50.930;13.334;2022-07-24T11:55:11;6.88;;;3.05;;
27632;SDS011;15046;50.930;13.334;2022-07-24T11:57:42;5.22;;;2.97;;
27632;SDS011;15046;50.930;13.334;2022-07-24T12:00:11;4.23;;;2.73;;
27632;SDS011;15046;50.930;13.334;2022-07-24T12:02:43;6.13;;;2.75;;
27632;SDS011;15046;50.930;13.334;2022-07-24T12:05:13;5.60;;;2.75;;
27632;SDS011;15046;50.930;13.334;2022-07-24T12:07:47;4.45;;;2.63;;
27632;SDS011;15046;50.930;13.334;2022-07-24T12:10:13;3.88;;;2.47;;
27632;SDS011;15046;50.930;13.334;2022-07-24T12:12:44;5.85;;;2.67;;
27632;SDS011;15046;50.930;13.334;2022-07-24T12:15:12;3.72;;;2.40;;
27632;SDS011;15046;50.930;13.334;2022-07-24T12:20:29;4.07;;;2.70;;
27632;SDS011;15046;50.930;13.334;2022-07-24T12:22:58;6.93;;;2.83;;
27632;SDS011;15046;50.930;13.334;2022-07-24T12:25:25;3.97;;;2.63;;
27632;SDS011;15046;50.930;13.334;2022-07-24T12:28:00;5.80;;;2.65;;
27632;SDS011;15046;50.930;13.334;2022-07-24T12:30:36;4.35;;;2.80;;
27632;SDS011;15046;50.930;13.334;2022-07-24T12:38:36;4.95;;;2.95;;
27632;SDS011;15046;50.930;13.334;2022-07-24T12:41:04;4.23;;;2.60;;
27632;SDS011;15046;50.930;13.334;2022-07-24T12:46:23;3.60;;;2.47;;
27632;SDS011;15046;50.930;13.334;2022-07-24T12:54:31;5.57;;;2.42;;
27632;SDS011;15046;50.930;13.334;2022-07-24T12:57:00;4.32;;;2.40;;
27632;SDS011;15046;50.930;13.334;2022-07-24T12:59:35;3.65;;;2.33;;
27632;SDS011;15046;50.930;13.334;2022-07-24T13:02:06;3.75;;;2.70;;
27632;SDS011;15046;50.930;13.334;2022-07-24T13:04:33;4.88;;;2.50;;
27632;SDS011;15046;50.930;13.334;2022-07-24T13:07:06;4.75;;;2.55;;
27632;SDS011;15046;50.930;13.334;2022-07-24T13:09:34;5.82;;;2.20;;
27632;SDS011;15046;50.930;13.334;2022-07-24T13:12:00;4.80;;;2.42;;
27632;SDS011;15046;50.930;13.334;2022-07-24T13:14:26;8.13;;;3.90;;
27632;SDS011;15046;50.930;13.334;2022-07-24T13:16:53;5.22;;;3.03;;
27632;SDS011;15046;50.930;13.334;2022-07-24T13:19:20;5.65;;;2.63;;
27632;SDS011;15046;50.930;13.334;2022-07-24T13:21:47;3.40;;;2.05;;
27632;SDS011;15046;50.930;13.334;2022-07-24T13:24:14;3.95;;;2.50;;
27632;SDS011;15046;50.930;13.334;2022-07-24T13:26:41;7.13;;;2.70;;
27632;SDS011;15046;50.930;13.334;2022-07-24T13:29:08;4.30;;;2.72;;
27632;SDS011;15046;50.930;13.334;2022-07-24T13:31:34;3.33;;;2.20;;
27632;SDS011;15046;50.930;13.334;2022-07-24T13:34:01;5.05;;;2.13;;
27632;SDS011;15046;50.930;13.334;2022-07-24T13:36:27;3.50;;;2.28;;
27632;SDS011;15046;50.930;13.334;2022-07-24T13:38:53;3.10;;;2.10;;
27632;SDS011;15046;50.930;13.334;2022-07-24T13:41:22;4.38;;;2.38;;
27632;SDS011;15046;50.930;13.334;2022-07-24T13:43:50;3.55;;;2.13;;
27632;SDS011;15046;50.930;13.334;2022-07-24T13:46:16;4.25;;;2.28;;
27632;SDS011;15046;50.930;13.334;2022-07-24T13:48:43;3.88;;;2.22;;
27632;SDS011;15046;50.930;13.334;2022-07-24T13:51:13;4.50;;;2.08;;
27632;SDS011;15046;50.930;13.334;2022-07-24T13:53:39;4.40;;;2.45;;
27632;SDS011;15046;50.930;13.334;2022-07-24T13:56:08;3.22;;;2.13;;
27632;SDS011;15046;50.930;13.334;2022-07-24T13:58:34;3.38;;;2.20;;
27632;SDS011;15046;50.930;13.334;2022-07-24T14:01:03;3.78;;;2.00;;
27632;SDS011;15046;50.930;13.334;2022-07-24T14:03:31;4.28;;;2.40;;
27632;SDS011;15046;50.930;13.334;2022-07-24T14:05:57;3.65;;;2.20;;
27632;SDS011;15046;50.930;13.334;2022-07-24T14:08:24;4.70;;;2.53;;
27632;SDS011;15046;50.930;13.334;2022-07-24T14:10:50;3.35;;;2.00;;
27632;SDS011;15046;50.930;13.334;2022-07-24T14:13:15;3.30;;;2.15;;
27632;SDS011;15046;50.930;13.334;2022-07-24T14:15:41;3.15;;;2.10;;
27632;SDS011;15046;50.930;13.334;2022-07-24T14:18:07;3.88;;;2.47;;
27632;SDS011;15046;50.930;13.334;2022-07-24T14:20:33;5.35;;;2.35;;
27632;SDS011;15046;50.930;13.334;2022-07-24T14:22:59;5.47;;;2.05;;
27632;SDS011;15046;50.930;13.334;2022-07-24T14:25:42;4.13;;;2.33;;
27632;SDS011;15046;50.930;13.334;2022-07-24T14:28:10;3.65;;;2.17;;
27632;SDS011;15046;50.930;13.334;2022-07-24T14:30:37;4.57;;;2.05;;
27632;SDS011;15046;50.930;13.334;2022-07-24T14:35:40;3.38;;;2.08;;
27632;SDS011;15046;50.930;13.334;2022-07-24T14:38:06;3.42;;;2.17;;
27632;SDS011;15046;50.930;13.334;2022-07-24T14:40:32;3.53;;;2.20;;
27632;SDS011;15046;50.930;13.334;2022-07-24T14:42:58;3.25;;;2.00;;
27632;SDS011;15046;50.930;13.334;2022-07-24T14:45:24;3.83;;;2.22;;
27632;SDS011;15046;50.930;13.334;2022-07-24T14:47:50;3.10;;;2.03;;
27632;SDS011;15046;50.930;13.334;2022-07-24T14:50:16;3.55;;;2.40;;
27632;SDS011;15046;50.930;13.334;2022-07-24T14:52:41;2.95;;;2.17;;
27632;SDS011;15046;50.930;13.334;2022-07-24T14:55:07;3.65;;;2.17;;
27632;SDS011;15046;50.930;13.334;2022-07-24T14:57:33;4.20;;;2.45;;
27632;SDS011;15046;50.930;13.334;2022-07-24T15:00:00;3.25;;;1.92;;
27632;SDS011;15046;50.930;13.334;2022-07-24T15:02:30;4.15;;;2.33;;
27632;SDS011;15046;50.930;13.334;2022-07-24T15:05:00;3.63;;;2.10;;
27632;SDS011;15046;50.930;13.334;2022-07-24T15:07:30;3.75;;;2.15;;
27632;SDS011;15046;50.930;13.334;2022-07-24T15:09:59;3.05;;;2.15;;
27632;SDS011;15046;50.930;13.334;2022-07-24T15:12:25;3.45;;;2.25;;
27632;SDS011;15046;50.930;13.334;2022-07-24T15:14:51;2.70;;;1.92;;
27632;SDS011;15046;50.930;13.334;2022-07-24T15:17:23;3.30;;;2.10;;
27632;SDS011;15046;50.930;13.334;2022-07-24T15:19:49;3.97;;;2.53;;
27632;SDS011;15046;50.930;13.334;2022-07-24T15:22:15;3.63;;;2.00;;